Terminal Aerodrome Forecast
Issued by NWS Cleveland, OH

Home | Current Version | Previous Version | Text Only | Print | Product List | Glossary On
Versions: 1 2 3 4 5 6 7 8 9 10 11 12 13 14 15 16 17 18
000
FTUS41 KCLE 251100
TAFERI
TAF
KERI 251120Z 2512/2612 09003KT P6SM BKN250
     FM251600 03008KT P6SM BKN120 OVC250
     FM252200 03010KT P6SM SCT120 BKN250
     FM260400 05006KT P6SM BKN250=

USA.gov is the U.S. government's official web portal to all federal, state and local government web resources and services.